createdAt,value
2022-11-28T00:01:34.778Z,11.90
2022-11-28T00:06:29.438Z,13.85
2022-11-28T00:08:59.866Z,29.65
2022-11-28T00:11:27.812Z,25.63
2022-11-28T00:13:55.660Z,25.85
2022-11-28T00:16:24.244Z,25.58
2022-11-28T00:18:53.183Z,17.48
2022-11-28T00:21:21.078Z,21.67
2022-11-28T00:23:50.408Z,22.80
2022-11-28T00:26:29.715Z,22.05
2022-11-28T00:28:58.332Z,12.43
2022-11-28T00:31:31.474Z,21.20
2022-11-28T00:33:59.886Z,17.75
2022-11-28T00:36:27.236Z,22.63
2022-11-28T00:38:54.514Z,25.80
2022-11-28T00:41:29.017Z,19.98
2022-11-28T00:43:57.626Z,36.28
2022-11-28T00:46:25.520Z,43.35
2022-11-28T00:48:53.415Z,43.83
2022-11-28T00:51:24.043Z,37.58
2022-11-28T00:53:55.173Z,29.00
2022-11-28T00:56:26.414Z,21.58
2022-11-28T00:59:00.556Z,23.65
2022-11-28T01:01:37.628Z,20.50
2022-11-28T01:04:09.165Z,19.10
2022-11-28T01:06:40.234Z,18.00
2022-11-28T01:09:11.658Z,17.67
2022-11-28T01:11:41.151Z,15.77
2022-11-28T01:14:09.554Z,19.23
2022-11-28T01:16:36.952Z,15.93
2022-11-28T01:19:05.288Z,20.70
2022-11-28T01:21:33.139Z,25.23
2022-11-28T01:24:00.760Z,17.50
2022-11-28T01:26:30.251Z,18.50
2022-11-28T01:28:59.342Z,13.82
2022-11-28T01:31:29.908Z,12.68
2022-11-28T01:33:58.099Z,11.32
2022-11-28T01:36:26.203Z,11.73
2022-11-28T01:38:55.220Z,13.20
2022-11-28T01:41:26.109Z,16.48
2022-11-28T01:44:07.324Z,9.63
2022-11-28T01:46:36.713Z,12.45
2022-11-28T01:49:14.769Z,10.50
2022-11-28T01:51:47.935Z,14.90
2022-11-28T01:54:18.109Z,7.45
2022-11-28T01:56:56.686Z,10.55
2022-11-28T01:59:27.881Z,13.23
2022-11-28T02:01:55.326Z,6.47
2022-11-28T02:04:26.291Z,7.53
2022-11-28T02:06:54.308Z,7.85
2022-11-28T02:09:21.760Z,7.63
2022-11-28T02:12:10.248Z,11.18
2022-11-28T02:14:50.465Z,10.18
2022-11-28T02:17:42.665Z,12.10
2022-11-28T02:20:25.302Z,12.32
2022-11-28T02:23:02.070Z,10.25
2022-11-28T02:26:03.483Z,11.43
2022-11-28T02:28:36.864Z,9.40
2022-11-28T02:34:00.238Z,11.98
2022-11-28T02:36:39.763Z,7.95
2022-11-28T02:39:29.285Z,10.35
2022-11-28T02:42:23.475Z,11.77
2022-11-28T02:44:50.858Z,4.60
2022-11-28T02:47:28.096Z,7.90
2022-11-28T02:50:05.596Z,7.90
2022-11-28T02:52:50.224Z,7.30
2022-11-28T02:55:18.521Z,7.45
2022-11-28T02:57:51.974Z,6.78
2022-11-28T03:00:31.396Z,9.48
2022-11-28T03:03:24.786Z,8.38
2022-11-28T03:06:02.532Z,9.85
2022-11-28T03:08:45.184Z,8.65
2022-11-28T03:11:49.118Z,12.55
2022-11-28T03:14:25.167Z,10.63
2022-11-28T03:17:17.443Z,8.32
2022-11-28T03:20:08.907Z,8.27
2022-11-28T03:22:55.241Z,4.50
2022-11-28T03:25:44.235Z,10.05
2022-11-28T03:28:31.401Z,5.90
2022-11-28T03:31:10.782Z,3.85
2022-11-28T03:33:41.376Z,6.35
2022-11-28T03:36:22.294Z,7.68
2022-11-28T03:38:55.002Z,4.57
2022-11-28T03:41:30.175Z,6.88
2022-11-28T03:43:59.733Z,8.40
2022-11-28T03:46:34.545Z,10.98
2022-11-28T03:49:04.440Z,21.98
2022-11-28T03:51:33.955Z,19.35
2022-11-28T03:54:21.419Z,18.88
2022-11-28T03:57:13.426Z,20.38
2022-11-28T03:59:43.414Z,18.80
2022-11-28T04:02:25.767Z,16.02
2022-11-28T04:04:56.134Z,16.25
2022-11-28T04:07:29.356Z,16.27
2022-11-28T04:12:51.369Z,13.88
2022-11-28T04:15:31.056Z,16.20
2022-11-28T04:18:17.983Z,14.10
2022-11-28T04:21:07.644Z,16.88
2022-11-28T04:23:38.218Z,30.25
2022-11-28T04:26:14.907Z,26.67
2022-11-28T04:28:43.367Z,18.52
2022-11-28T04:31:10.971Z,18.80
2022-11-28T04:33:44.473Z,17.75
2022-11-28T04:36:13.253Z,18.60
2022-11-28T04:38:42.912Z,17.75
2022-11-28T04:41:18.913Z,17.92
2022-11-28T04:43:53.039Z,13.00
2022-11-28T04:46:38.026Z,14.57
2022-11-28T04:49:05.546Z,13.30
2022-11-28T04:51:58.966Z,16.90
2022-11-28T04:54:49.243Z,14.00
2022-11-28T04:57:27.532Z,12.63
2022-11-28T04:59:57.982Z,10.35
2022-11-28T05:02:31.601Z,13.15
2022-11-28T05:05:02.159Z,10.70
2022-11-28T05:07:29.464Z,14.15
2022-11-28T05:09:58.701Z,9.32
2022-11-28T05:12:26.231Z,9.63
2022-11-28T05:14:53.639Z,13.13
2022-11-28T05:17:21.075Z,12.45
2022-11-28T05:19:48.111Z,19.90
2022-11-28T05:22:15.856Z,8.27
2022-11-28T05:24:43.454Z,14.52
2022-11-28T05:27:11.764Z,16.63
2022-11-28T05:29:46.887Z,9.02
2022-11-28T05:32:18.190Z,11.05
2022-11-28T05:34:47.766Z,8.30
2022-11-28T05:37:18.564Z,11.73
2022-11-28T05:39:50.256Z,12.40
2022-11-28T05:42:18.620Z,13.70
2022-11-28T05:44:46.124Z,15.23
2022-11-28T05:47:13.344Z,10.43
2022-11-28T05:49:40.739Z,9.43
2022-11-28T05:52:09.049Z,11.38
2022-11-28T05:54:36.170Z,16.85
2022-11-28T05:57:03.534Z,23.52
2022-11-28T05:59:30.901Z,22.77
2022-11-28T06:01:58.352Z,33.78
2022-11-28T06:04:25.794Z,13.98
2022-11-28T06:06:53.475Z,24.80
2022-11-28T06:09:24.610Z,21.10
2022-11-28T06:11:53.748Z,21.30
2022-11-28T06:14:20.995Z,22.52
2022-11-28T06:16:48.736Z,26.38
2022-11-28T06:19:16.429Z,36.10
2022-11-28T06:21:43.880Z,19.15
2022-11-28T06:24:11.902Z,13.90
2022-11-28T06:26:39.186Z,11.25
2022-11-28T06:29:06.673Z,10.00
2022-11-28T06:31:34.475Z,13.80
2022-11-28T06:34:01.868Z,12.85
2022-11-28T06:36:31.459Z,13.90
2022-11-28T06:38:58.723Z,18.80
2022-11-28T06:41:25.922Z,28.85
2022-11-28T06:43:53.446Z,46.60
2022-11-28T06:46:22.345Z,30.05
2022-11-28T06:48:51.202Z,23.75
2022-11-28T06:51:19.233Z,26.20
2022-11-28T06:53:46.907Z,19.40
2022-11-28T06:56:17.661Z,12.35
2022-11-28T06:58:46.467Z,15.68
2022-11-28T07:01:20.089Z,21.40
2022-11-28T07:03:49.108Z,16.20
2022-11-28T07:06:18.819Z,10.20
2022-11-28T07:08:46.888Z,12.57
2022-11-28T07:11:17.354Z,8.80
2022-11-28T07:13:48.371Z,12.75
2022-11-28T07:16:30.241Z,8.50
2022-11-28T07:18:59.580Z,16.70
2022-11-28T07:21:28.157Z,13.55
2022-11-28T07:23:55.482Z,23.08
2022-11-28T07:26:23.153Z,14.70
2022-11-28T07:28:51.930Z,12.57
2022-11-28T07:31:22.124Z,17.45
2022-11-28T07:33:50.897Z,8.35
2022-11-28T07:36:21.267Z,9.25
2022-11-28T07:38:54.723Z,8.20
2022-11-28T07:43:57.226Z,4.15
2022-11-28T07:46:26.228Z,9.43
2022-11-28T07:48:53.733Z,5.15
2022-11-28T07:51:24.305Z,5.80
2022-11-28T07:53:53.466Z,14.88
2022-11-28T07:56:25.265Z,15.98
2022-11-28T07:58:53.482Z,12.45
2022-11-28T08:01:24.682Z,12.45
2022-11-28T08:03:53.364Z,12.07
2022-11-28T08:06:22.638Z,12.43
2022-11-28T08:08:50.684Z,9.77
2022-11-28T08:11:20.947Z,11.30
2022-11-28T08:13:49.427Z,13.82
2022-11-28T08:16:20.256Z,23.25
2022-11-28T08:18:49.487Z,29.40
2022-11-28T08:21:20.285Z,18.77
2022-11-28T08:23:47.759Z,19.02
2022-11-28T08:26:17.505Z,32.75
2022-11-28T08:28:45.388Z,26.65
2022-11-28T08:31:24.492Z,26.15
2022-11-28T08:33:52.955Z,21.80
2022-11-28T08:36:21.050Z,34.75
2022-11-28T08:39:03.532Z,41.88
2022-11-28T08:41:37.247Z,42.05
2022-11-28T08:44:04.614Z,27.95
2022-11-28T08:46:31.922Z,28.33
2022-11-28T08:49:04.214Z,31.70
2022-11-28T08:51:32.249Z,24.98
2022-11-28T08:54:00.364Z,31.88
2022-11-28T08:56:28.665Z,20.20
2022-11-28T08:58:56.778Z,17.10
2022-11-28T09:01:26.425Z,23.23
2022-11-28T09:03:55.289Z,19.38
2022-11-28T09:06:24.503Z,18.25
2022-11-28T09:08:52.882Z,19.40
2022-11-28T09:11:22.680Z,15.13
2022-11-28T09:13:50.969Z,19.20
2022-11-28T09:16:18.398Z,14.65
2022-11-28T09:18:45.649Z,15.45
2022-11-28T09:21:15.250Z,14.43
2022-11-28T09:23:44.730Z,19.13
2022-11-28T09:26:14.646Z,17.60
2022-11-28T09:28:42.561Z,21.70
2022-11-28T09:31:11.035Z,40.58
2022-11-28T09:33:39.015Z,27.40
2022-11-28T09:36:11.679Z,26.63
2022-11-28T09:38:40.113Z,35.83
2022-11-28T09:41:28.921Z,29.17
2022-11-28T09:44:18.531Z,50.70
2022-11-28T09:46:48.674Z,61.08
2022-11-28T09:49:27.317Z,39.50
2022-11-28T09:52:05.293Z,27.67
2022-11-28T09:54:51.346Z,21.50
2022-11-28T09:57:39.479Z,24.05
2022-11-28T10:00:17.182Z,39.00
2022-11-28T10:02:51.598Z,31.13
2022-11-28T10:05:43.415Z,26.10
2022-11-28T10:08:37.296Z,23.58
2022-11-28T10:11:07.183Z,22.35
2022-11-28T10:14:10.466Z,20.60
2022-11-28T10:16:55.816Z,20.83
2022-11-28T10:22:29.685Z,25.90
2022-11-28T10:25:01.124Z,23.60
2022-11-28T10:27:35.914Z,26.23
2022-11-28T10:30:11.713Z,25.85
2022-11-28T10:32:42.946Z,28.90
2022-11-28T10:35:28.969Z,41.65
2022-11-28T10:37:57.494Z,27.83
2022-11-28T10:40:42.271Z,35.22
2022-11-28T10:43:32.685Z,29.27
2022-11-28T10:46:24.557Z,23.20
2022-11-28T10:49:07.958Z,17.58
2022-11-28T10:51:44.466Z,20.02
2022-11-28T10:54:36.856Z,25.52
2022-11-28T10:57:17.853Z,28.23
2022-11-28T11:00:01.662Z,29.73
2022-11-28T11:02:52.699Z,24.55
2022-11-28T11:05:24.675Z,34.35
2022-11-28T11:08:02.787Z,18.30
2022-11-28T11:10:49.588Z,20.80
2022-11-28T11:13:21.683Z,23.63
2022-11-28T11:16:03.351Z,22.67
2022-11-28T11:18:35.391Z,28.58
2022-11-28T11:21:09.108Z,27.42
2022-11-28T11:23:38.431Z,12.98
2022-11-28T11:26:10.606Z,24.23
2022-11-28T11:28:47.549Z,14.75
2022-11-28T11:31:44.915Z,18.52
2022-11-28T11:34:18.869Z,18.35
2022-11-28T11:36:46.891Z,14.68
2022-11-28T11:39:13.984Z,18.00
2022-11-28T11:41:42.339Z,15.90
2022-11-28T11:44:15.969Z,17.92
2022-11-28T11:47:02.088Z,18.25
2022-11-28T11:49:38.484Z,18.80
2022-11-28T11:52:26.300Z,28.23
2022-11-28T11:54:58.552Z,18.02
2022-11-28T11:57:38.444Z,14.02
2022-11-28T12:00:19.418Z,21.77
2022-11-28T12:02:56.702Z,34.92
2022-11-28T12:05:46.632Z,31.88
2022-11-28T12:08:55.910Z,27.17
2022-11-28T12:11:34.453Z,26.17
2022-11-28T12:14:39.016Z,25.48
2022-11-28T12:17:46.862Z,19.98
2022-11-28T12:20:20.976Z,15.48
2022-11-28T12:23:17.025Z,13.30
2022-11-28T12:26:03.566Z,12.95
2022-11-28T12:28:47.687Z,13.07
2022-11-28T12:31:37.035Z,12.82
2022-11-28T12:34:30.677Z,14.60
2022-11-28T12:37:14.185Z,18.00
2022-11-28T12:39:51.761Z,22.40
2022-11-28T12:42:44.724Z,22.33
2022-11-28T12:45:47.908Z,18.57
2022-11-28T12:48:51.660Z,20.02
2022-11-28T12:51:33.463Z,17.52
2022-11-28T12:54:37.623Z,13.25
2022-11-28T13:00:06.694Z,23.65
2022-11-28T13:02:50.911Z,23.60
2022-11-28T13:05:42.893Z,20.73
2022-11-28T13:08:46.510Z,15.32
2022-11-28T13:11:27.169Z,10.10
2022-11-28T13:14:10.112Z,5.90
2022-11-28T13:16:50.360Z,13.23
2022-11-28T13:19:20.607Z,12.07
2022-11-28T13:22:00.226Z,7.68
2022-11-28T13:25:09.231Z,6.70
2022-11-28T13:28:02.942Z,4.53
2022-11-28T13:30:41.127Z,6.72
2022-11-28T13:33:19.436Z,4.75
2022-11-28T13:35:48.122Z,8.45
2022-11-28T13:38:36.293Z,5.82
2022-11-28T13:41:43.083Z,10.07
2022-11-28T13:44:23.063Z,7.00
2022-11-28T13:46:51.511Z,10.25
2022-11-28T13:49:29.956Z,7.50
2022-11-28T13:52:19.162Z,6.93
2022-11-28T13:54:53.247Z,6.85
2022-11-28T13:57:38.976Z,8.48
2022-11-28T14:00:24.139Z,6.38
2022-11-28T14:03:00.427Z,8.50
2022-11-28T14:05:35.180Z,8.38
2022-11-28T14:08:05.123Z,10.50
2022-11-28T14:10:58.916Z,11.40
2022-11-28T14:13:32.730Z,18.17
2022-11-28T14:16:25.339Z,13.48
2022-11-28T14:19:13.119Z,17.83
2022-11-28T14:21:49.635Z,24.52
2022-11-28T14:24:32.607Z,17.80
2022-11-28T14:27:03.144Z,23.10
2022-11-28T14:29:40.246Z,14.05
2022-11-28T14:32:30.228Z,14.45
2022-11-28T14:35:00.616Z,23.83
2022-11-28T14:37:29.048Z,33.50
2022-11-28T14:39:58.655Z,27.17
2022-11-28T14:42:59.052Z,17.10
2022-11-28T14:45:41.594Z,18.38
2022-11-28T14:48:24.572Z,13.00
2022-11-28T14:53:38.340Z,10.45
2022-11-28T14:56:29.341Z,11.23
2022-11-28T14:59:01.458Z,9.48
2022-11-28T15:01:43.965Z,15.15
2022-11-28T15:04:39.503Z,12.27
2022-11-28T15:07:37.136Z,10.55
2022-11-28T15:10:23.132Z,11.05
2022-11-28T15:13:28.725Z,15.48
2022-11-28T15:15:56.231Z,13.95
2022-11-28T15:18:26.097Z,14.05
2022-11-28T15:21:01.560Z,9.60
2022-11-28T15:23:35.887Z,8.00
2022-11-28T15:26:03.841Z,13.15
2022-11-28T15:28:34.319Z,10.63
2022-11-28T15:31:06.920Z,14.73
2022-11-28T15:33:34.516Z,12.52
2022-11-28T15:36:12.506Z,14.50
2022-11-28T15:38:43.339Z,9.45
2022-11-28T15:41:11.388Z,11.07
2022-11-28T15:43:42.733Z,11.82
2022-11-28T15:46:34.689Z,14.55
2022-11-28T15:49:02.860Z,14.10
2022-11-28T15:51:36.599Z,13.88
2022-11-28T15:54:27.774Z,14.18
2022-11-28T15:56:58.960Z,18.25
2022-11-28T15:59:28.253Z,12.23
2022-11-28T16:02:00.311Z,9.45
2022-11-28T16:04:29.126Z,11.30
2022-11-28T16:06:59.391Z,11.93
2022-11-28T16:09:35.908Z,11.80
2022-11-28T16:12:05.705Z,14.98
2022-11-28T16:14:36.586Z,13.60
2022-11-28T16:17:10.698Z,13.15
2022-11-28T16:19:38.926Z,12.05
2022-11-28T16:22:15.552Z,12.95
2022-11-28T16:24:52.603Z,11.20
2022-11-28T16:27:29.425Z,13.77
2022-11-28T16:29:57.002Z,13.90
2022-11-28T16:32:39.837Z,10.63
2022-11-28T16:35:12.715Z,10.80
2022-11-28T16:37:40.911Z,11.05
2022-11-28T16:40:17.362Z,10.45
2022-11-28T16:42:53.683Z,8.25
2022-11-28T16:45:30.930Z,10.75
2022-11-28T16:48:08.940Z,11.93
2022-11-28T16:50:37.655Z,17.50
2022-11-28T16:53:05.906Z,15.50
2022-11-28T16:55:34.098Z,16.13
2022-11-28T16:58:16.604Z,15.65
2022-11-28T17:00:48.586Z,16.63
2022-11-28T17:03:46.725Z,12.48
2022-11-28T17:06:24.244Z,19.30
2022-11-28T17:08:52.073Z,16.75
2022-11-28T17:11:23.610Z,17.35
2022-11-28T17:13:51.826Z,17.30
2022-11-28T17:16:25.069Z,15.93
2022-11-28T17:18:52.734Z,15.45
2022-11-28T17:21:35.135Z,21.50
2022-11-28T17:24:02.771Z,16.90
2022-11-28T17:26:30.207Z,14.10
2022-11-28T17:28:59.261Z,16.98
2022-11-28T17:31:26.536Z,11.80
2022-11-28T17:33:53.916Z,12.23
2022-11-28T17:36:22.732Z,15.95
2022-11-28T17:38:50.095Z,11.50
2022-11-28T17:41:17.572Z,11.98
2022-11-28T17:43:45.443Z,11.18
2022-11-28T17:46:12.908Z,11.23
2022-11-28T17:48:40.885Z,11.10
2022-11-28T17:51:11.174Z,12.98
2022-11-28T17:53:38.808Z,13.07
2022-11-28T17:56:06.756Z,15.23
2022-11-28T17:58:37.758Z,8.73
2022-11-28T18:01:11.735Z,9.98
2022-11-28T18:03:40.604Z,8.70
2022-11-28T18:06:15.706Z,7.20
2022-11-28T18:08:44.887Z,10.05
2022-11-28T18:11:13.994Z,6.15
2022-11-28T18:13:43.805Z,5.47
2022-11-28T18:16:14.355Z,4.63
2022-11-28T18:18:41.788Z,5.43
2022-11-28T18:21:11.099Z,9.38
2022-11-28T18:23:42.666Z,5.10
2022-11-28T18:26:14.359Z,5.25
2022-11-28T18:28:42.039Z,6.63
2022-11-28T18:31:16.598Z,4.85
2022-11-28T18:33:44.013Z,7.57
2022-11-28T18:36:13.657Z,6.05
2022-11-28T18:38:42.037Z,6.07
2022-11-28T18:41:09.796Z,5.53
2022-11-28T18:43:37.650Z,5.93
2022-11-28T18:46:11.434Z,8.88
2022-11-28T18:48:40.942Z,6.72
2022-11-28T18:51:12.041Z,7.57
2022-11-28T18:53:40.221Z,7.30
2022-11-28T18:56:08.287Z,14.23
2022-11-28T18:58:42.213Z,14.23
2022-11-28T19:01:25.281Z,14.38
2022-11-28T19:03:56.687Z,12.23
2022-11-28T19:06:24.770Z,12.30
2022-11-28T19:08:57.979Z,6.60
2022-11-28T19:11:26.470Z,7.95
2022-11-28T19:13:53.921Z,15.95
2022-11-28T19:16:25.201Z,23.27
2022-11-28T19:19:00.839Z,13.23
2022-11-28T19:21:33.113Z,9.23
2022-11-28T19:24:02.615Z,9.10
2022-11-28T19:26:34.155Z,15.18
2022-11-28T19:29:03.941Z,13.63
2022-11-28T19:31:33.886Z,8.75
2022-11-28T19:34:04.548Z,9.88
2022-11-28T19:36:35.447Z,8.80
2022-11-28T19:39:04.160Z,8.73
2022-11-28T19:41:32.625Z,9.23
2022-11-28T19:44:00.369Z,11.73
2022-11-28T19:46:35.069Z,11.32
2022-11-28T19:49:14.571Z,10.30
2022-11-28T19:51:41.839Z,14.88
2022-11-28T19:54:09.553Z,19.60
2022-11-28T19:56:37.307Z,26.08
2022-11-28T19:59:04.631Z,18.33
2022-11-28T20:01:31.938Z,24.98
2022-11-28T20:03:59.904Z,18.58
2022-11-28T20:06:30.318Z,23.40
2022-11-28T20:09:05.364Z,39.22
2022-11-28T20:11:37.769Z,35.10
2022-11-28T20:14:08.970Z,52.95
2022-11-28T20:16:37.566Z,46.38
2022-11-28T20:19:06.628Z,36.90
2022-11-28T20:21:34.871Z,31.63
2022-11-28T20:24:05.996Z,30.67
2022-11-28T20:26:38.616Z,31.58
2022-11-28T20:29:07.047Z,38.10
2022-11-28T20:31:42.500Z,33.83
2022-11-28T20:34:10.305Z,31.88
2022-11-28T20:36:43.835Z,28.52
2022-11-28T20:39:12.818Z,31.10
2022-11-28T20:41:40.787Z,25.38
2022-11-28T20:44:08.653Z,26.95
2022-11-28T20:46:36.179Z,24.08
2022-11-28T20:49:06.836Z,21.23
2022-11-28T20:51:36.492Z,21.23
2022-11-28T20:54:05.617Z,23.23
2022-11-28T20:56:57.956Z,28.23
2022-11-28T20:59:24.492Z,19.65
2022-11-28T21:01:54.074Z,17.63
2022-11-28T21:04:21.571Z,16.45
2022-11-28T21:06:49.727Z,19.13
2022-11-28T21:09:20.573Z,20.63
2022-11-28T21:11:58.498Z,19.33
2022-11-28T21:14:27.342Z,17.23
2022-11-28T21:16:55.858Z,16.98
2022-11-28T21:19:26.223Z,15.77
2022-11-28T21:21:54.999Z,22.80
2022-11-28T21:24:29.319Z,22.83
2022-11-28T21:26:57.055Z,19.52
2022-11-28T21:29:25.204Z,19.80
2022-11-28T21:31:55.913Z,17.58
2022-11-28T21:34:24.581Z,16.67
2022-11-28T21:36:52.243Z,13.30
2022-11-28T21:39:20.802Z,15.50
2022-11-28T21:41:53.478Z,13.68
2022-11-28T21:44:22.435Z,14.33
2022-11-28T21:46:49.936Z,12.52
2022-11-28T21:49:17.948Z,14.63
2022-11-28T21:51:47.372Z,18.42
2022-11-28T21:54:15.375Z,11.07
2022-11-28T21:56:45.122Z,11.98
2022-11-28T21:59:12.836Z,13.63
2022-11-28T22:01:41.914Z,13.27
2022-11-28T22:04:11.103Z,13.57
2022-11-28T22:06:39.409Z,13.25
2022-11-28T22:09:09.435Z,15.15
2022-11-28T22:11:38.533Z,14.10
2022-11-28T22:14:06.370Z,16.13
2022-11-28T22:16:37.588Z,18.52
2022-11-28T22:19:06.384Z,24.15
2022-11-28T22:21:53.415Z,50.13
2022-11-28T22:24:22.256Z,26.33
2022-11-28T22:26:49.865Z,30.15
2022-11-28T22:29:18.516Z,26.70
2022-11-28T22:31:46.076Z,27.50
2022-11-28T22:34:13.706Z,27.42
2022-11-28T22:36:41.157Z,30.60
2022-11-28T22:39:11.594Z,28.05
2022-11-28T22:41:39.185Z,25.88
2022-11-28T22:44:06.523Z,28.30
2022-11-28T22:46:34.045Z,21.52
2022-11-28T22:49:02.299Z,20.55
2022-11-28T22:51:30.974Z,20.90
2022-11-28T22:54:01.013Z,20.15
2022-11-28T22:56:31.147Z,16.23
2022-11-28T22:59:00.061Z,16.95
2022-11-28T23:01:31.068Z,15.70
2022-11-28T23:04:03.786Z,16.92
2022-11-28T23:06:34.876Z,15.15
2022-11-28T23:09:06.632Z,16.23
2022-11-28T23:11:37.540Z,15.63
2022-11-28T23:14:05.424Z,17.75
2022-11-28T23:16:36.116Z,16.48
2022-11-28T23:19:10.375Z,41.15
2022-11-28T23:21:40.334Z,49.40
2022-11-28T23:24:12.679Z,50.03
2022-11-28T23:26:40.176Z,43.53
2022-11-28T23:29:07.878Z,36.60
2022-11-28T23:31:38.236Z,31.83
2022-11-28T23:34:05.584Z,25.80
2022-11-28T23:36:41.878Z,21.92
2022-11-28T23:39:18.711Z,17.27
2022-11-28T23:41:46.835Z,21.45
2022-11-28T23:44:15.409Z,20.60
2022-11-28T23:46:43.436Z,21.45
2022-11-28T23:49:11.662Z,21.55
2022-11-28T23:51:40.854Z,18.05
2022-11-28T23:54:09.849Z,18.50
2022-11-28T23:56:39.783Z,14.57
2022-11-28T23:59:09.033Z,19.05
